createdAt,value
2022-12-27T00:03:27.651Z,2.58
2022-12-27T00:08:30.491Z,2.03
2022-12-27T00:13:33.372Z,2.00
2022-12-27T00:18:38.228Z,1.60
2022-12-27T00:23:43.986Z,1.63
2022-12-27T00:28:47.696Z,1.52
2022-12-27T00:33:54.966Z,1.60
2022-12-27T00:38:59.258Z,1.98
2022-12-27T00:44:02.048Z,2.60
2022-12-27T00:49:06.158Z,1.85
2022-12-27T00:54:09.008Z,2.60
2022-12-27T00:59:12.709Z,1.67
2022-12-27T01:04:17.623Z,2.33
2022-12-27T01:09:21.218Z,1.80
2022-12-27T01:14:24.040Z,1.70
2022-12-27T01:19:28.172Z,2.08
2022-12-27T01:24:31.019Z,1.80
2022-12-27T01:29:33.773Z,2.35
2022-12-27T01:34:38.015Z,2.33
2022-12-27T01:39:41.773Z,2.63
2022-12-27T01:45:02.716Z,1.85
2022-12-27T01:50:13.557Z,1.88
2022-12-27T01:55:22.885Z,2.20
2022-12-27T02:00:25.709Z,2.75
2022-12-27T02:05:30.927Z,2.05
2022-12-27T02:10:34.562Z,2.15
2022-12-27T02:15:37.755Z,2.20
2022-12-27T02:21:00.764Z,1.98
2022-12-27T02:26:27.097Z,1.95
2022-12-27T02:31:36.625Z,2.10
2022-12-27T02:36:43.099Z,1.90
2022-12-27T02:42:04.721Z,2.15
2022-12-27T02:47:36.819Z,2.17
2022-12-27T02:53:02.571Z,2.20
2022-12-27T02:58:26.476Z,2.25
2022-12-27T03:03:45.113Z,2.70
2022-12-27T03:08:53.494Z,2.63
2022-12-27T03:14:23.123Z,2.50
2022-12-27T03:19:47.312Z,2.75
2022-12-27T03:25:07.561Z,2.58
2022-12-27T03:30:29.563Z,3.05
2022-12-27T03:35:39.496Z,2.20
2022-12-27T03:41:03.505Z,2.08
2022-12-27T03:46:38.819Z,3.22
2022-12-27T03:51:47.338Z,2.30
2022-12-27T04:01:52.833Z,2.40
2022-12-27T04:06:57.044Z,2.50
2022-12-27T04:12:17.238Z,3.30
2022-12-27T04:17:37.263Z,2.70
2022-12-27T04:22:58.764Z,2.88
2022-12-27T04:28:18.929Z,2.20
2022-12-27T04:33:39.284Z,2.70
2022-12-27T04:38:43.396Z,2.60
2022-12-27T04:44:03.681Z,3.60
2022-12-27T04:49:24.412Z,3.40
2022-12-27T04:54:48.055Z,3.40
2022-12-27T05:00:08.220Z,3.17
2022-12-27T05:05:11.831Z,3.35
2022-12-27T05:10:33.728Z,3.47
2022-12-27T05:15:36.537Z,2.88
2022-12-27T05:20:39.664Z,3.00
2022-12-27T05:25:44.529Z,3.22
2022-12-27T05:30:48.877Z,2.83
2022-12-27T05:35:52.043Z,3.38
2022-12-27T05:41:00.308Z,3.42
2022-12-27T05:46:08.285Z,3.22
2022-12-27T05:51:13.682Z,3.53
2022-12-27T05:56:20.466Z,3.30
2022-12-27T06:01:23.583Z,3.70
2022-12-27T06:06:26.453Z,3.17
2022-12-27T06:11:30.641Z,3.38
2022-12-27T06:16:33.426Z,3.22
2022-12-27T06:21:36.223Z,3.25
2022-12-27T06:26:42.208Z,3.00
2022-12-27T06:31:45.526Z,2.67
2022-12-27T06:36:51.147Z,2.40
2022-12-27T06:41:56.228Z,2.85
2022-12-27T06:46:59.024Z,2.30
2022-12-27T06:52:01.794Z,2.40
2022-12-27T06:57:08.576Z,2.83
2022-12-27T07:02:11.900Z,2.80
2022-12-27T07:07:15.938Z,3.10
2022-12-27T07:12:20.342Z,2.70
2022-12-27T07:17:23.437Z,3.00
2022-12-27T07:22:28.265Z,2.88
2022-12-27T07:27:34.078Z,2.90
2022-12-27T07:32:36.924Z,2.75
2022-12-27T07:37:39.697Z,2.80
2022-12-27T07:42:43.846Z,3.33
2022-12-27T07:47:46.625Z,2.58
2022-12-27T07:52:49.367Z,2.50
2022-12-27T07:57:53.475Z,2.47
2022-12-27T08:02:56.235Z,2.75
2022-12-27T08:08:03.472Z,2.97
2022-12-27T08:13:08.495Z,2.28
2022-12-27T08:18:11.397Z,2.22
2022-12-27T08:23:14.179Z,2.58
2022-12-27T08:28:19.369Z,2.30
2022-12-27T08:33:22.060Z,4.30
2022-12-27T08:38:25.281Z,2.55
2022-12-27T08:43:30.031Z,2.38
2022-12-27T08:48:33.671Z,2.40
2022-12-27T08:53:36.545Z,3.00
2022-12-27T08:58:40.634Z,2.58
2022-12-27T09:03:44.732Z,2.55
2022-12-27T09:08:48.909Z,2.75
2022-12-27T09:13:55.860Z,3.08
2022-12-27T09:19:00.323Z,2.40
2022-12-27T09:24:03.505Z,2.90
2022-12-27T09:29:07.689Z,2.53
2022-12-27T09:34:11.050Z,2.03
2022-12-27T09:39:13.848Z,2.60
2022-12-27T09:44:25.516Z,2.00
2022-12-27T09:49:37.324Z,2.17
2022-12-27T09:54:57.893Z,2.60
2022-12-27T10:00:14.637Z,2.25
2022-12-27T10:05:22.565Z,2.33
2022-12-27T10:15:48.395Z,1.98
2022-12-27T10:20:59.603Z,2.10
2022-12-27T10:26:05.952Z,2.67
2022-12-27T10:31:16.279Z,2.72
2022-12-27T10:36:23.649Z,2.42
2022-12-27T10:41:37.270Z,2.55
2022-12-27T10:46:44.564Z,1.95
2022-12-27T10:51:49.079Z,1.95
2022-12-27T10:56:52.197Z,2.20
2022-12-27T11:02:18.442Z,2.20
2022-12-27T11:07:21.340Z,2.17
2022-12-27T11:12:25.775Z,1.92
2022-12-27T11:17:36.591Z,2.40
2022-12-27T11:22:45.050Z,2.45
2022-12-27T11:32:53.977Z,1.70
2022-12-27T11:37:57.462Z,1.90
2022-12-27T11:43:06.409Z,2.40
2022-12-27T11:48:22.195Z,1.70
2022-12-27T11:54:02.077Z,2.30
2022-12-27T11:59:40.764Z,1.73
2022-12-27T12:05:13.148Z,2.03
2022-12-27T12:10:32.610Z,2.53
2022-12-27T12:15:49.660Z,2.08
2022-12-27T12:21:20.241Z,2.45
2022-12-27T12:26:24.980Z,2.17
2022-12-27T12:31:51.868Z,2.20
2022-12-27T12:37:09.613Z,2.40
2022-12-27T12:42:21.766Z,2.45
2022-12-27T12:47:40.931Z,2.58
2022-12-27T12:53:02.137Z,2.25
2022-12-27T12:58:18.649Z,2.50
2022-12-27T13:03:58.311Z,2.38
2022-12-27T13:09:11.339Z,2.92
2022-12-27T13:14:29.277Z,3.00
2022-12-27T13:19:48.002Z,2.40
2022-12-27T13:25:06.073Z,3.17
2022-12-27T13:30:20.074Z,2.70
2022-12-27T13:35:35.672Z,2.60
2022-12-27T13:41:14.178Z,2.92
2022-12-27T13:46:43.059Z,2.20
2022-12-27T13:51:50.429Z,2.78
2022-12-27T13:57:09.384Z,2.60
2022-12-27T14:02:40.026Z,3.40
2022-12-27T14:08:01.373Z,2.58
2022-12-27T14:13:07.817Z,2.97
2022-12-27T14:18:36.854Z,2.85
2022-12-27T14:29:44.037Z,2.72
2022-12-27T14:35:37.672Z,3.13
2022-12-27T14:41:11.131Z,3.00
2022-12-27T14:46:48.934Z,3.00
2022-12-27T14:52:18.424Z,4.30
2022-12-27T14:57:34.940Z,3.38
2022-12-27T15:02:53.858Z,4.22
2022-12-27T15:08:41.060Z,3.63
2022-12-27T15:14:02.129Z,3.88
2022-12-27T15:19:25.998Z,4.40
2022-12-27T15:24:41.792Z,4.85
2022-12-27T15:30:03.191Z,4.57
2022-12-27T15:35:28.893Z,4.30
2022-12-27T15:40:43.878Z,4.53
2022-12-27T15:46:00.747Z,4.03
2022-12-27T15:51:11.726Z,4.38
2022-12-27T15:56:31.618Z,4.28
2022-12-27T16:01:39.206Z,5.13
2022-12-27T16:06:51.433Z,4.20
2022-12-27T16:12:06.760Z,4.90
2022-12-27T16:17:36.502Z,4.28
2022-12-27T16:22:43.574Z,6.13
2022-12-27T16:27:46.501Z,4.65
2022-12-27T16:32:51.588Z,6.32
2022-12-27T16:37:55.797Z,5.30
2022-12-27T16:43:28.376Z,5.80
2022-12-27T16:48:44.932Z,7.32
2022-12-27T16:54:06.936Z,5.60
2022-12-27T16:59:42.917Z,6.80
2022-12-27T17:04:58.421Z,8.30
2022-12-27T17:10:31.254Z,6.65
2022-12-27T17:15:34.217Z,6.05
2022-12-27T17:20:41.163Z,8.13
2022-12-27T17:25:49.505Z,7.63
2022-12-27T17:31:00.193Z,7.05
2022-12-27T17:36:22.869Z,7.30
2022-12-27T17:41:53.560Z,6.93
2022-12-27T17:47:15.444Z,7.40
2022-12-27T17:52:43.009Z,8.50
2022-12-27T17:57:55.326Z,7.97
2022-12-27T18:03:01.016Z,9.13
2022-12-27T18:08:07.198Z,8.77
2022-12-27T18:13:19.533Z,8.82
2022-12-27T18:18:27.245Z,8.70
2022-12-27T18:23:40.924Z,8.88
2022-12-27T18:28:44.434Z,8.18
2022-12-27T18:33:50.613Z,8.48
2022-12-27T18:38:59.777Z,8.27
2022-12-27T18:44:03.236Z,8.43
2022-12-27T18:49:06.802Z,8.18
2022-12-27T18:54:30.857Z,8.00
2022-12-27T18:59:35.946Z,9.18
2022-12-27T19:04:38.865Z,8.95
2022-12-27T19:09:50.617Z,9.13
2022-12-27T19:14:54.566Z,8.70
2022-12-27T19:20:01.225Z,10.43
2022-12-27T19:25:07.762Z,10.93
2022-12-27T19:30:32.569Z,8.98
2022-12-27T19:35:35.664Z,10.25
2022-12-27T19:40:40.749Z,9.82
2022-12-27T19:45:43.530Z,9.18
2022-12-27T19:50:50.156Z,9.15
2022-12-27T19:55:54.518Z,9.15
2022-12-27T20:00:57.884Z,10.15
2022-12-27T20:06:12.999Z,9.82
2022-12-27T20:11:22.422Z,9.45
2022-12-27T20:16:25.914Z,8.93
2022-12-27T20:21:29.061Z,9.60
2022-12-27T20:26:33.243Z,9.45
2022-12-27T20:31:42.405Z,9.45
2022-12-27T20:37:24.927Z,9.05
2022-12-27T20:42:30.900Z,10.40
2022-12-27T20:47:33.868Z,10.18
2022-12-27T20:52:41.996Z,11.23
2022-12-27T20:58:37.037Z,10.73
2022-12-27T21:03:43.297Z,11.75
2022-12-27T21:08:52.485Z,11.10
2022-12-27T21:14:00.761Z,12.52
2022-12-27T21:19:05.559Z,10.90
2022-12-27T21:24:10.753Z,11.07
2022-12-27T21:29:14.722Z,11.70
2022-12-27T21:34:19.151Z,11.30
2022-12-27T21:39:22.021Z,11.63
2022-12-27T21:44:25.479Z,11.30
2022-12-27T21:49:29.737Z,11.82
2022-12-27T21:54:32.592Z,11.70
2022-12-27T21:59:35.549Z,11.55
2022-12-27T22:04:39.808Z,11.27
2022-12-27T22:09:42.557Z,11.23
2022-12-27T22:14:45.337Z,10.50
2022-12-27T22:19:50.703Z,10.07
2022-12-27T22:24:53.546Z,9.85
2022-12-27T22:29:56.308Z,10.27
2022-12-27T22:35:00.529Z,10.27
2022-12-27T22:40:03.346Z,9.25
2022-12-27T22:45:07.383Z,8.65
2022-12-27T22:50:11.872Z,8.82
2022-12-27T22:55:16.095Z,8.07
2022-12-27T23:00:20.408Z,7.82
2022-12-27T23:05:24.621Z,7.85
2022-12-27T23:10:27.461Z,8.32
2022-12-27T23:15:30.387Z,8.38
2022-12-27T23:20:36.260Z,6.20
2022-12-27T23:25:39.176Z,6.18
2022-12-27T23:30:42.240Z,6.05
2022-12-27T23:35:46.516Z,5.22
2022-12-27T23:40:54.498Z,4.93
2022-12-27T23:45:57.309Z,4.60
2022-12-27T23:51:01.518Z,4.15
2022-12-27T23:56:08.307Z,4.35
